Time;durP1;ratioP1;P1;durP2;ratioP2;P2;SDS_P1;SDS_P2;PMS_P1;PMS_P2;Temp;Humidity;BMP_temperature;BMP_pressure;BME280_temperature;BME280_humidity;BME280_pressure;Samples;Min_cycle;Max_cycle;Signal;HPM_P1;HPM_P2
2021/11/04 00:00:36;;;;;;;115.47;45.47;;;7.30;99.90;;;;;;5016325;28;20034;-84
2021/11/04 00:03:03;;;;;;;123.35;46.67;;;7.30;99.90;;;;;;5016241;28;20021;-85
2021/11/04 00:05:29;;;;;;;116.43;46.92;;;7.30;99.90;;;;;;5021351;28;20033;-85
2021/11/04 00:07:58;;;;;;;116.00;44.30;;;7.20;99.90;;;;;;5017872;28;20022;-84
2021/11/04 00:10:24;;;;;;;120.63;43.88;;;7.20;99.90;;;;;;5015867;28;20029;-84
2021/11/04 00:12:49;;;;;;;115.32;45.58;;;7.20;99.90;;;;;;5017320;28;20497;-84
2021/11/04 00:15:15;;;;;;;123.68;45.22;;;7.10;99.90;;;;;;5018715;28;20087;-85
2021/11/04 00:17:41;;;;;;;120.55;47.47;;;7.10;99.90;;;;;;5012362;28;20021;-84
2021/11/04 00:20:10;;;;;;;143.30;47.08;;;7.10;99.90;;;;;;5018035;28;20029;-84
2021/11/04 00:22:36;;;;;;;115.80;44.30;;;7.10;99.90;;;;;;5015092;28;20028;-85
2021/11/04 00:25:03;;;;;;;111.63;44.20;;;7.10;99.90;;;;;;5022156;28;20486;-84
2021/11/04 00:27:28;;;;;;;124.22;46.45;;;7.10;99.90;;;;;;5016284;28;20389;-84
2021/11/04 00:29:54;;;;;;;129.63;46.38;;;7.10;99.90;;;;;;5021750;28;20070;-85
2021/11/04 00:32:20;;;;;;;120.47;45.88;;;7.00;99.90;;;;;;5015536;28;20026;-84
2021/11/04 00:34:45;;;;;;;113.10;45.67;;;7.00;99.90;;;;;;5017903;28;20029;-84
2021/11/04 00:37:11;;;;;;;136.38;48.70;;;7.00;99.90;;;;;;5012338;28;20025;-84
2021/11/04 00:39:36;;;;;;;135.50;49.20;;;7.00;99.90;;;;;;5037563;28;20037;-85
2021/11/04 00:42:02;;;;;;;139.80;49.15;;;6.90;99.90;;;;;;5017242;28;20397;-84
2021/11/04 00:44:28;;;;;;;137.73;48.85;;;6.90;99.90;;;;;;5033381;28;20037;-84
2021/11/04 00:46:53;;;;;;;137.50;48.97;;;6.90;99.90;;;;;;5015591;28;20436;-84
2021/11/04 00:49:19;;;;;;;159.13;49.50;;;6.90;99.90;;;;;;5018059;28;20490;-84
2021/11/04 00:51:44;;;;;;;148.77;49.92;;;6.90;99.90;;;;;;5014030;28;20477;-84
2021/11/04 00:54:10;;;;;;;208.18;52.42;;;6.90;99.90;;;;;;5017246;28;20466;-84
2021/11/04 00:56:36;;;;;;;229.57;47.50;;;6.90;99.90;;;;;;5016115;28;20017;-85
2021/11/04 00:59:01;;;;;;;176.45;46.13;;;6.90;99.90;;;;;;5015759;28;20037;-84
2021/11/04 01:01:27;;;;;;;161.02;47.67;;;6.80;99.90;;;;;;5025203;28;20032;-84
2021/11/04 01:03:53;;;;;;;431.70;46.10;;;6.80;99.90;;;;;;5014743;28;20025;-85
2021/11/04 01:06:20;;;;;;;287.65;49.60;;;6.80;99.90;;;;;;5046598;28;20096;-85
2021/11/04 01:08:46;;;;;;;326.92;46.42;;;6.70;99.90;;;;;;5021391;28;20025;-84
2021/11/04 01:11:12;;;;;;;455.20;52.92;;;6.70;99.90;;;;;;5016520;28;20097;-84
2021/11/04 01:13:38;;;;;;;247.95;45.67;;;6.60;99.90;;;;;;5015543;28;20060;-84
2021/11/04 01:16:04;;;;;;;157.23;40.78;;;6.60;99.90;;;;;;5012946;28;20021;-84
2021/11/04 01:18:30;;;;;;;359.15;49.58;;;6.60;99.90;;;;;;5007147;28;20064;-85
2021/11/04 01:20:56;;;;;;;479.45;52.40;;;6.60;99.90;;;;;;5016864;28;20457;-84
2021/11/04 01:23:21;;;;;;;197.23;46.47;;;6.60;99.90;;;;;;5015530;28;20028;-84
2021/11/04 01:25:47;;;;;;;324.95;48.55;;;6.60;99.90;;;;;;5019889;28;20498;-84
2021/11/04 01:28:13;;;;;;;469.80;50.28;;;6.70;99.90;;;;;;5015032;28;20036;-85
2021/11/04 01:30:39;;;;;;;443.95;51.80;;;6.60;99.90;;;;;;5015525;28;20025;-84
2021/11/04 01:33:05;;;;;;;254.23;41.40;;;6.50;99.90;;;;;;5014572;28;21163;-84
2021/11/04 01:35:31;;;;;;;272.83;41.50;;;6.50;99.90;;;;;;5026445;28;20021;-85
2021/11/04 01:38:01;;;;;;;233.52;40.72;;;6.50;99.90;;;;;;5015384;28;20029;-84
2021/11/04 01:40:27;;;;;;;172.25;39.78;;;6.50;99.90;;;;;;5011903;28;20029;-85
2021/11/04 01:42:53;;;;;;;232.63;40.38;;;6.50;99.90;;;;;;5015049;28;20026;-85
2021/11/04 01:45:19;;;;;;;231.50;39.22;;;6.40;99.90;;;;;;5017767;28;20052;-84
2021/11/04 01:47:46;;;;;;;325.83;42.08;;;6.40;99.90;;;;;;5014309;28;20026;-85
2021/11/04 01:50:16;;;;;;;311.15;42.42;;;6.30;99.90;;;;;;5015818;28;20067;-84
2021/11/04 01:52:43;;;;;;;506.90;54.17;;;6.30;99.90;;;;;;5015163;28;20250;-84
2021/11/04 01:55:14;;;;;;;472.17;54.25;;;6.20;99.90;;;;;;5018240;28;20099;-84
2021/11/04 01:57:39;;;;;;;443.42;52.45;;;6.30;99.90;;;;;;5026042;28;20026;-84
2021/11/04 02:00:06;;;;;;;219.20;44.53;;;6.20;99.90;;;;;;5013174;28;20052;-85
2021/11/04 02:02:40;;;;;;;479.10;53.58;;;6.20;99.90;;;;;;5014390;28;20393;-84
2021/11/04 02:05:07;;;;;;;698.78;63.78;;;6.30;99.90;;;;;;5027873;28;20358;-84
2021/11/04 02:08:03;;;;;;;404.60;45.50;;;6.20;99.90;;;;;;5015927;28;20401;-85
2021/11/04 02:10:48;;;;;;;206.43;40.95;;;6.30;99.90;;;;;;5014616;28;20030;-83
2021/11/04 02:13:16;;;;;;;355.38;46.55;;;6.30;99.90;;;;;;5002341;28;20536;-85
2021/11/04 02:15:43;;;;;;;266.77;45.47;;;6.20;99.90;;;;;;5019179;28;20037;-84
2021/11/04 02:18:10;;;;;;;262.95;40.97;;;6.30;99.90;;;;;;5031386;28;20156;-85
2021/11/04 02:20:42;;;;;;;180.90;44.13;;;6.30;99.90;;;;;;5013416;28;20026;-83
2021/11/04 02:23:17;;;;;;;191.88;41.90;;;6.30;99.90;;;;;;5007292;28;20026;-85
2021/11/04 02:25:44;;;;;;;275.55;41.75;;;6.30;99.90;;;;;;5034327;28;20029;-84
2021/11/04 02:28:13;;;;;;;241.63;43.85;;;6.20;99.90;;;;;;5019053;28;20060;-84
2021/11/04 02:30:40;;;;;;;201.32;40.13;;;6.20;99.90;;;;;;5030824;28;20100;-84
2021/11/04 02:33:07;;;;;;;207.90;39.03;;;6.20;99.90;;;;;;5015573;28;20038;-84
2021/11/04 02:35:33;;;;;;;148.88;41.85;;;6.20;99.90;;;;;;5015650;28;20037;-84
2021/11/04 02:37:59;;;;;;;225.27;40.00;;;6.10;99.90;;;;;;5040655;28;20030;-84
2021/11/04 02:40:25;;;;;;;127.05;39.17;;;6.10;99.90;;;;;;5014590;28;20030;-84
2021/11/04 02:42:51;;;;;;;159.65;40.97;;;6.00;99.90;;;;;;5015177;28;20124;-84
2021/11/04 02:45:20;;;;;;;296.40;45.25;;;6.00;99.90;;;;;;5021117;28;20084;-84
2021/11/04 02:47:46;;;;;;;401.30;50.65;;;6.00;99.90;;;;;;5014716;28;20028;-84
2021/11/04 02:50:12;;;;;;;108.53;41.00;;;6.00;99.90;;;;;;5016269;28;20125;-85
2021/11/04 02:52:38;;;;;;;124.72;38.38;;;6.00;99.90;;;;;;5025691;28;20077;-84
2021/11/04 02:55:05;;;;;;;116.72;41.00;;;6.00;99.90;;;;;;5019916;28;20044;-84
2021/11/04 02:57:32;;;;;;;97.72;38.63;;;6.00;99.90;;;;;;5026885;28;20481;-85
2021/11/04 02:59:57;;;;;;;93.68;37.72;;;6.00;99.90;;;;;;5017582;28;20123;-84
2021/11/04 03:02:23;;;;;;;165.40;42.20;;;6.00;99.90;;;;;;5016640;28;20560;-84
2021/11/04 03:04:49;;;;;;;95.40;37.65;;;6.00;99.90;;;;;;5023769;28;20024;-84
2021/11/04 03:07:15;;;;;;;107.47;40.78;;;6.10;99.90;;;;;;5020066;28;20031;-84
2021/11/04 03:09:41;;;;;;;85.32;39.00;;;6.10;99.90;;;;;;5019244;28;20036;-84
2021/11/04 03:12:07;;;;;;;86.82;38.78;;;6.10;99.90;;;;;;5023850;28;20025;-85
2021/11/04 03:14:33;;;;;;;87.95;37.65;;;6.10;99.90;;;;;;5021637;28;20033;-84
2021/11/04 03:17:02;;;;;;;98.50;40.88;;;6.10;99.90;;;;;;5018022;28;20030;-84
2021/11/04 03:19:28;;;;;;;91.40;38.95;;;6.10;99.90;;;;;;5017322;28;20485;-84
2021/11/04 03:21:55;;;;;;;102.95;38.92;;;6.20;99.90;;;;;;5017970;28;20025;-84
2021/11/04 03:24:23;;;;;;;163.90;43.58;;;6.20;99.90;;;;;;5018576;28;20053;-84
2021/11/04 03:26:54;;;;;;;123.82;40.42;;;6.20;99.90;;;;;;5034597;28;20028;-84
2021/11/04 03:29:21;;;;;;;265.33;49.38;;;6.30;99.90;;;;;;5016445;28;20037;-85
2021/11/04 03:31:48;;;;;;;259.33;44.65;;;6.30;99.90;;;;;;5014791;28;20024;-85
2021/11/04 03:34:14;;;;;;;191.68;43.53;;;6.30;99.90;;;;;;5019239;28;20036;-85
2021/11/04 03:36:44;;;;;;;141.95;40.33;;;6.30;99.90;;;;;;5023282;28;20025;-85
2021/11/04 03:39:10;;;;;;;80.68;35.20;;;6.30;99.90;;;;;;5015703;28;20038;-84
2021/11/04 03:41:36;;;;;;;75.15;33.65;;;6.30;99.90;;;;;;5018067;28;20026;-85
2021/11/04 03:44:02;;;;;;;71.97;33.55;;;6.30;99.90;;;;;;5017593;28;20108;-84
2021/11/04 03:46:28;;;;;;;68.50;33.13;;;6.30;99.90;;;;;;5022513;28;20056;-85
2021/11/04 03:48:55;;;;;;;59.53;30.40;;;6.30;99.90;;;;;;5016687;28;20041;-84
2021/11/04 03:51:22;;;;;;;80.15;32.95;;;6.30;99.90;;;;;;5015745;28;20505;-84
2021/11/04 03:53:49;;;;;;;60.40;30.75;;;6.30;99.90;;;;;;5022208;28;20052;-85
2021/11/04 03:56:15;;;;;;;71.32;31.85;;;6.30;99.90;;;;;;5037732;28;20018;-84
2021/11/04 03:58:42;;;;;;;56.42;28.25;;;6.30;99.90;;;;;;5017477;28;20021;-84
2021/11/04 04:01:09;;;;;;;54.55;28.38;;;6.30;99.90;;;;;;5016857;28;20520;-84
2021/11/04 04:03:36;;;;;;;52.95;28.02;;;6.30;99.90;;;;;;5017320;28;20029;-84
2021/11/04 04:06:04;;;;;;;53.60;29.83;;;6.30;99.90;;;;;;5016445;28;20025;-84
2021/11/04 04:08:32;;;;;;;54.40;29.52;;;6.30;99.90;;;;;;5016995;28;20029;-84
2021/11/04 04:10:58;;;;;;;61.58;29.88;;;6.30;99.90;;;;;;5021484;28;20647;-84
2021/11/04 04:13:24;;;;;;;57.38;29.55;;;6.30;99.90;;;;;;5023429;28;20029;-85
2021/11/04 04:15:49;;;;;;;59.33;30.67;;;6.30;99.90;;;;;;5000429;28;20401;-84
2021/11/04 04:18:15;;;;;;;61.80;30.45;;;6.30;99.90;;;;;;5038779;28;20083;-85
2021/11/04 04:20:41;;;;;;;58.65;30.40;;;6.40;99.90;;;;;;5015684;28;20035;-84
2021/11/04 04:23:06;;;;;;;61.15;30.38;;;6.40;99.90;;;;;;5022326;28;20029;-85
2021/11/04 04:25:32;;;;;;;61.60;29.60;;;6.40;99.90;;;;;;5025217;28;20029;-84
2021/11/04 04:27:59;;;;;;;74.00;33.75;;;6.30;99.90;;;;;;5024432;28;20413;-85
2021/11/04 04:30:24;;;;;;;81.95;32.30;;;6.30;99.90;;;;;;5014381;28;20029;-84
2021/11/04 04:32:50;;;;;;;95.53;32.25;;;6.30;99.90;;;;;;5032619;28;20138;-84
2021/11/04 04:35:16;;;;;;;82.57;34.92;;;6.30;99.90;;;;;;5017257;28;20025;-85
2021/11/04 04:37:41;;;;;;;95.50;34.05;;;6.30;99.90;;;;;;5017341;28;20056;-84
2021/11/04 04:40:08;;;;;;;78.97;34.58;;;6.30;99.90;;;;;;5018572;28;20033;-85
2021/11/04 04:42:33;;;;;;;105.70;38.70;;;6.30;99.90;;;;;;5032712;28;20026;-85
2021/11/04 04:44:59;;;;;;;88.18;34.55;;;6.30;99.90;;;;;;5015228;28;20033;-85
2021/11/04 04:47:25;;;;;;;84.13;34.72;;;6.30;99.90;;;;;;5026300;28;20026;-84
2021/11/04 04:49:51;;;;;;;84.30;35.88;;;6.30;99.90;;;;;;5033148;28;20064;-84
2021/11/04 04:52:17;;;;;;;81.70;34.30;;;6.30;99.90;;;;;;5015743;28;20045;-84
2021/11/04 04:54:42;;;;;;;82.57;35.75;;;6.30;99.90;;;;;;5033601;28;20470;-84
2021/11/04 04:57:08;;;;;;;93.50;36.20;;;6.40;99.90;;;;;;5034310;28;20108;-84
2021/11/04 04:59:33;;;;;;;82.10;36.33;;;6.30;99.90;;;;;;5031426;28;20037;-84
2021/11/04 05:01:59;;;;;;;89.13;35.75;;;6.30;99.90;;;;;;5031160;28;20029;-85
2021/11/04 05:04:25;;;;;;;95.03;37.15;;;6.30;99.90;;;;;;5016948;28;20523;-84
2021/11/04 05:06:50;;;;;;;97.20;36.65;;;6.30;99.90;;;;;;5033089;28;20033;-84
2021/11/04 05:09:16;;;;;;;101.05;37.97;;;6.30;99.90;;;;;;5016103;28;20064;-84
2021/11/04 05:11:41;;;;;;;121.82;37.42;;;6.30;99.90;;;;;;5031149;28;20025;-84
2021/11/04 05:14:07;;;;;;;112.22;35.90;;;6.30;99.90;;;;;;5014127;28;20026;-84
2021/11/04 05:16:43;;;;;;;91.50;35.80;;;6.30;99.90;;;;;;5023877;28;20033;-84
2021/11/04 05:19:09;;;;;;;83.78;35.33;;;6.30;99.90;;;;;;5017048;28;20131;-84
2021/11/04 05:21:35;;;;;;;87.45;34.33;;;6.30;99.90;;;;;;5015484;28;20503;-84
2021/11/04 05:24:01;;;;;;;94.18;34.65;;;6.20;99.90;;;;;;5028510;28;20030;-84
2021/11/04 05:26:26;;;;;;;82.97;33.95;;;6.20;99.90;;;;;;5012823;28;20485;-84
2021/11/04 05:28:52;;;;;;;82.15;34.35;;;6.20;99.90;;;;;;5006247;28;20397;-85
2021/11/04 05:31:17;;;;;;;91.15;34.78;;;6.20;99.90;;;;;;5022423;28;20036;-84
2021/11/04 05:33:43;;;;;;;80.97;34.33;;;6.20;99.90;;;;;;5030712;28;20053;-84
2021/11/04 05:36:08;;;;;;;89.97;34.60;;;6.20;99.90;;;;;;5033546;28;20029;-83
2021/11/04 05:38:34;;;;;;;95.43;35.80;;;6.20;99.90;;;;;;5032140;28;20044;-83
2021/11/04 05:40:59;;;;;;;90.30;35.17;;;6.20;99.90;;;;;;5034084;28;20033;-83
2021/11/04 05:43:25;;;;;;;95.45;35.72;;;6.30;99.90;;;;;;5036604;28;20037;-84
2021/11/04 05:45:50;;;;;;;109.28;37.33;;;6.30;99.90;;;;;;5051447;28;20131;-84
2021/11/04 05:48:16;;;;;;;101.45;34.95;;;6.30;99.90;;;;;;5017892;28;20056;-84
2021/11/04 05:50:42;;;;;;;95.70;34.83;;;6.30;99.90;;;;;;5031504;28;20092;-84
2021/11/04 05:53:07;;;;;;;137.07;34.80;;;6.30;99.90;;;;;;5031696;28;20052;-84
2021/11/04 05:55:33;;;;;;;203.68;37.38;;;6.30;99.90;;;;;;5047161;28;20579;-84
2021/11/04 05:57:58;;;;;;;211.32;35.72;;;6.30;99.90;;;;;;5022992;28;20381;-84
2021/11/04 06:00:24;;;;;;;168.65;37.53;;;6.30;99.90;;;;;;5014787;28;20040;-84
2021/11/04 06:02:49;;;;;;;203.85;38.75;;;6.20;99.90;;;;;;5030708;28;20072;-84
2021/11/04 06:05:15;;;;;;;253.90;40.30;;;6.20;99.90;;;;;;5020664;28;20084;-84
2021/11/04 06:07:41;;;;;;;124.28;36.67;;;6.20;99.90;;;;;;5016554;28;20029;-84
2021/11/04 06:10:06;;;;;;;218.70;38.22;;;6.20;99.90;;;;;;5021953;28;20088;-84
2021/11/04 06:12:32;;;;;;;144.82;32.03;;;6.20;99.90;;;;;;5016662;28;20048;-84
2021/11/04 06:14:57;;;;;;;194.57;36.55;;;6.20;99.90;;;;;;5021424;28;20021;-84
2021/11/04 06:17:23;;;;;;;198.73;35.85;;;6.20;99.90;;;;;;5032672;28;20025;-84
2021/11/04 06:19:48;;;;;;;145.35;35.42;;;6.20;99.90;;;;;;5030702;28;20112;-84
2021/11/04 06:22:14;;;;;;;133.52;32.47;;;6.20;99.90;;;;;;5019628;28;20044;-83
2021/11/04 06:24:39;;;;;;;119.43;33.45;;;6.20;99.90;;;;;;5035085;28;20032;-84
2021/11/04 06:27:05;;;;;;;170.50;32.85;;;6.20;99.90;;;;;;5028559;28;20053;-84
2021/11/04 06:29:30;;;;;;;150.45;33.33;;;6.20;99.90;;;;;;5015620;28;20021;-85
2021/11/04 06:31:56;;;;;;;130.30;30.50;;;6.20;99.90;;;;;;5012588;28;20386;-84
2021/11/04 06:34:21;;;;;;;109.88;32.17;;;6.20;99.90;;;;;;5010165;28;20361;-84
2021/11/04 06:36:47;;;;;;;148.10;33.60;;;6.10;99.90;;;;;;5023462;28;20021;-85
2021/11/04 06:39:13;;;;;;;111.07;32.55;;;6.10;99.90;;;;;;5011674;28;20128;-84
2021/11/04 06:41:38;;;;;;;194.43;33.30;;;6.10;99.90;;;;;;5024955;28;20017;-84
2021/11/04 06:44:04;;;;;;;132.73;31.85;;;6.10;99.90;;;;;;5026853;28;20040;-84
2021/11/04 06:46:32;;;;;;;151.93;33.38;;;6.10;99.90;;;;;;5027403;28;20025;-84
2021/11/04 06:49:07;;;;;;;100.22;30.90;;;6.10;99.90;;;;;;5012597;28;20508;-84
2021/11/04 06:51:37;;;;;;;178.13;32.10;;;6.10;99.90;;;;;;5017661;28;20175;-85
2021/11/04 06:54:06;;;;;;;130.65;30.80;;;6.00;99.90;;;;;;5016633;28;20125;-85
2021/11/04 06:56:38;;;;;;;109.22;33.05;;;6.00;99.90;;;;;;5024991;28;20037;-85
2021/11/04 06:59:05;;;;;;;134.77;33.15;;;6.00;99.90;;;;;;5019034;28;20045;-84
2021/11/04 07:01:33;;;;;;;154.45;33.70;;;6.00;99.90;;;;;;5019724;28;20030;-85
2021/11/04 07:04:09;;;;;;;89.72;32.65;;;6.00;99.90;;;;;;5018338;28;20084;-85
2021/11/04 07:06:43;;;;;;;213.88;36.60;;;5.90;99.90;;;;;;5019070;28;20048;-85
2021/11/04 07:09:09;;;;;;;147.40;35.58;;;5.90;99.90;;;;;;5014010;28;20508;-85
2021/11/04 07:11:35;;;;;;;137.23;37.42;;;6.00;99.90;;;;;;5018466;28;20018;-83
2021/11/04 07:14:01;;;;;;;217.43;40.35;;;5.90;99.90;;;;;;5021437;28;20033;-84
2021/11/04 07:16:28;;;;;;;195.90;38.83;;;6.00;99.90;;;;;;5007500;28;20026;-83
2021/11/04 07:18:56;;;;;;;154.32;37.33;;;6.00;99.90;;;;;;5015899;28;20041;-84
2021/11/04 07:21:33;;;;;;;211.88;37.72;;;6.00;99.90;;;;;;5018191;28;20147;-84
2021/11/04 07:24:07;;;;;;;139.10;36.53;;;6.00;99.90;;;;;;5014153;28;20030;-84
2021/11/04 07:26:44;;;;;;;182.68;37.80;;;6.10;99.90;;;;;;5018386;28;20547;-85
2021/11/04 07:29:12;;;;;;;214.05;41.58;;;6.10;99.90;;;;;;5019055;28;20097;-84
2021/11/04 07:31:54;;;;;;;128.43;37.25;;;6.10;99.90;;;;;;5017212;28;20021;-86
2021/11/04 07:34:28;;;;;;;136.63;39.88;;;6.20;99.90;;;;;;5012592;28;20092;-86
2021/11/04 07:36:56;;;;;;;159.38;41.10;;;6.30;99.90;;;;;;5020179;28;20033;-84
2021/11/04 07:39:21;;;;;;;127.20;37.20;;;6.40;99.90;;;;;;5017625;28;20033;-85
2021/11/04 07:41:47;;;;;;;128.50;37.25;;;6.40;99.90;;;;;;5013272;28;20022;-84
2021/11/04 07:44:12;;;;;;;127.55;40.05;;;6.40;99.90;;;;;;5013804;28;20040;-84
2021/11/04 07:46:38;;;;;;;128.23;38.30;;;6.50;99.90;;;;;;5016848;28;20045;-85
2021/11/04 07:49:03;;;;;;;421.02;52.58;;;6.50;99.90;;;;;;5010148;28;20080;-84
2021/11/04 07:51:30;;;;;;;132.00;36.78;;;6.50;99.90;;;;;;5016549;28;20018;-84
2021/11/04 07:53:58;;;;;;;126.05;35.35;;;6.60;99.90;;;;;;5016951;28;20049;-84
2021/11/04 07:56:24;;;;;;;128.98;37.53;;;6.70;99.90;;;;;;5013679;28;20430;-84
2021/11/04 07:58:49;;;;;;;99.63;36.33;;;6.70;99.90;;;;;;5010539;28;20037;-85
2021/11/04 08:01:15;;;;;;;117.35;36.38;;;6.70;99.90;;;;;;5016578;28;20401;-84
2021/11/04 08:03:43;;;;;;;104.75;37.50;;;6.80;99.90;;;;;;5017636;28;20512;-84
2021/11/04 08:06:08;;;;;;;112.07;37.42;;;6.80;99.90;;;;;;5016743;28;20029;-84
2021/11/04 08:08:35;;;;;;;100.72;36.65;;;6.80;99.90;;;;;;5028433;28;20057;-84
2021/11/04 08:11:01;;;;;;;93.97;35.40;;;6.90;99.90;;;;;;5012086;28;20105;-84
2021/11/04 08:13:26;;;;;;;70.80;34.08;;;6.90;99.90;;;;;;5019055;28;20233;-84
2021/11/04 08:15:52;;;;;;;73.40;34.30;;;6.90;99.90;;;;;;5028795;28;20032;-84
2021/11/04 08:18:18;;;;;;;78.15;33.83;;;6.90;99.90;;;;;;5014984;28;20033;-84
2021/11/04 08:20:44;;;;;;;72.15;34.28;;;6.90;99.90;;;;;;5015867;28;20056;-84
2021/11/04 08:23:12;;;;;;;76.85;36.13;;;6.90;99.90;;;;;;5018533;28;20025;-84
2021/11/04 08:25:38;;;;;;;87.95;36.47;;;7.00;99.90;;;;;;5017283;28;20397;-84
2021/11/04 08:28:05;;;;;;;72.95;33.58;;;7.10;99.90;;;;;;5010625;28;20060;-84
2021/11/04 08:30:30;;;;;;;77.18;35.17;;;7.20;99.90;;;;;;5016238;28;20478;-85
2021/11/04 08:32:56;;;;;;;70.35;34.65;;;7.20;99.90;;;;;;5012647;28;20033;-84
2021/11/04 08:35:22;;;;;;;72.15;35.08;;;7.30;99.90;;;;;;5016275;28;20087;-85
2021/11/04 08:37:47;;;;;;;63.42;32.45;;;7.30;99.90;;;;;;5020424;28;20049;-84
2021/11/04 08:40:13;;;;;;;58.30;32.70;;;7.40;99.90;;;;;;5017094;28;20382;-84
2021/11/04 08:42:39;;;;;;;61.00;31.63;;;7.40;99.90;;;;;;5016907;28;20048;-84
2021/11/04 08:45:06;;;;;;;62.35;32.22;;;7.50;99.90;;;;;;5031142;28;20040;-84
2021/11/04 08:47:32;;;;;;;63.28;33.97;;;7.50;99.90;;;;;;5012654;28;20033;-84
2021/11/04 08:49:59;;;;;;;53.28;29.75;;;7.50;99.90;;;;;;5021212;28;20389;-84
2021/11/04 08:52:24;;;;;;;52.20;30.08;;;7.50;99.90;;;;;;5023776;28;20032;-84
2021/11/04 08:54:51;;;;;;;52.40;31.10;;;7.50;99.90;;;;;;5008405;28;20046;-84
2021/11/04 08:57:17;;;;;;;50.88;31.00;;;7.50;99.90;;;;;;5029593;28;20037;-84
2021/11/04 08:59:43;;;;;;;52.88;30.08;;;7.50;99.90;;;;;;5032493;28;20112;-84
2021/11/04 09:02:13;;;;;;;48.80;28.95;;;7.40;99.90;;;;;;5013380;28;20026;-84
2021/11/04 09:04:42;;;;;;;51.25;28.88;;;7.40;99.90;;;;;;5027518;28;20018;-84
2021/11/04 09:07:09;;;;;;;53.75;30.15;;;7.40;99.90;;;;;;5011433;28;20041;-84
2021/11/04 09:09:35;;;;;;;49.42;29.33;;;7.40;99.90;;;;;;5016658;28;20022;-84
2021/11/04 09:12:01;;;;;;;53.53;30.17;;;7.50;99.90;;;;;;5016136;28;20033;-84
2021/11/04 09:14:27;;;;;;;48.35;29.10;;;7.50;99.90;;;;;;5010910;28;20030;-84
2021/11/04 09:16:53;;;;;;;49.50;29.67;;;7.50;99.90;;;;;;5018511;28;20030;-85
2021/11/04 09:19:19;;;;;;;50.28;29.00;;;7.50;99.90;;;;;;5014606;28;20045;-85
2021/11/04 09:21:44;;;;;;;47.05;28.58;;;7.60;99.90;;;;;;5009633;28;20520;-85
2021/11/04 09:24:10;;;;;;;46.90;27.83;;;7.60;99.90;;;;;;5029842;28;20037;-85
2021/11/04 09:26:37;;;;;;;51.13;29.35;;;7.60;99.90;;;;;;5015878;28;20022;-85
2021/11/04 09:29:03;;;;;;;43.70;28.25;;;7.70;99.90;;;;;;5016219;28;20018;-85
2021/11/04 09:31:29;;;;;;;43.50;27.88;;;7.70;99.90;;;;;;5013573;28;20033;-84
2021/11/04 09:33:57;;;;;;;42.85;27.95;;;7.70;99.90;;;;;;5016436;28;20020;-85
2021/11/04 09:36:25;;;;;;;41.35;27.33;;;7.70;99.90;;;;;;5016441;28;20094;-85
2021/11/04 09:38:52;;;;;;;41.17;26.13;;;7.80;99.90;;;;;;5016355;28;20065;-85
2021/11/04 09:41:17;;;;;;;41.33;24.98;;;7.80;99.90;;;;;;5015746;28;20109;-85
2021/11/04 09:43:43;;;;;;;38.10;24.83;;;7.80;99.90;;;;;;5016434;28;20056;-85
2021/11/04 09:46:09;;;;;;;34.33;23.75;;;7.80;99.90;;;;;;5014056;28;20034;-84
2021/11/04 09:48:36;;;;;;;38.92;25.95;;;7.90;99.90;;;;;;5015066;28;20022;-85
2021/11/04 09:51:02;;;;;;;35.65;24.25;;;7.90;99.90;;;;;;5032745;28;20036;-85
2021/11/04 09:53:27;;;;;;;35.30;22.80;;;8.00;99.90;;;;;;5028670;28;20041;-85
2021/11/04 09:55:53;;;;;;;36.13;23.90;;;8.00;99.90;;;;;;5014347;28;20033;-84
2021/11/04 09:58:19;;;;;;;38.92;24.58;;;8.00;99.90;;;;;;5033027;28;20075;-84
2021/11/04 10:00:45;;;;;;;37.25;24.00;;;8.00;99.90;;;;;;5036519;28;20029;-84
2021/11/04 10:03:13;;;;;;;34.10;23.85;;;8.00;99.90;;;;;;5019859;28;20025;-84
2021/11/04 10:05:47;;;;;;;41.00;23.70;;;8.00;99.90;;;;;;5020131;28;20025;-84
2021/11/04 10:08:15;;;;;;;39.47;26.20;;;8.10;99.90;;;;;;5037703;28;20030;-84
2021/11/04 10:10:43;;;;;;;36.63;23.90;;;8.10;99.90;;;;;;5013919;28;20116;-84
2021/11/04 10:13:11;;;;;;;36.72;24.77;;;8.20;99.90;;;;;;5018309;28;20073;-84
2021/11/04 10:15:40;;;;;;;36.75;24.20;;;8.30;99.90;;;;;;5014331;28;20536;-84
2021/11/04 10:18:18;;;;;;;36.47;25.05;;;8.50;99.90;;;;;;5006146;28;20036;-84
2021/11/04 10:20:52;;;;;;;33.13;23.30;;;8.60;99.90;;;;;;5010364;28;20080;-84
2021/11/04 10:23:18;;;;;;;37.30;24.38;;;8.70;99.90;;;;;;5033913;28;20492;-85
2021/11/04 10:25:43;;;;;;;34.58;24.30;;;8.80;99.90;;;;;;5033070;28;20037;-84
2021/11/04 10:28:31;;;;;;;38.72;25.00;;;8.80;99.90;;;;;;5017876;28;20030;-84
2021/11/04 10:30:58;;;;;;;34.00;23.67;;;8.80;99.90;;;;;;5018970;28;20026;-85
2021/11/04 10:33:33;;;;;;;38.42;23.65;;;8.90;99.90;;;;;;5019734;28;20025;-84
2021/11/04 10:36:05;;;;;;;35.45;24.05;;;8.90;99.90;;;;;;5019048;28;20379;-85
2021/11/04 10:38:56;;;;;;;33.07;22.60;;;9.10;99.90;;;;;;5019221;28;20388;-84
2021/11/04 10:41:25;;;;;;;31.15;21.80;;;9.20;99.90;;;;;;5014330;28;20018;-84
2021/11/04 10:44:12;;;;;;;31.13;21.63;;;9.20;99.90;;;;;;5017663;28;20029;-85
2021/11/04 10:46:43;;;;;;;32.08;22.20;;;9.20;99.90;;;;;;5007016;28;20030;-84
2021/11/04 10:49:08;;;;;;;31.60;22.33;;;9.20;99.90;;;;;;5007585;28;20025;-84
2021/11/04 10:51:34;;;;;;;31.73;21.45;;;9.30;99.90;;;;;;5024013;28;20017;-85
2021/11/04 10:54:04;;;;;;;30.10;22.10;;;9.30;99.90;;;;;;5036345;28;20111;-85
2021/11/04 10:56:31;;;;;;;30.98;21.58;;;9.30;99.90;;;;;;5012147;28;20374;-85
2021/11/04 10:59:02;;;;;;;28.60;21.20;;;9.30;99.90;;;;;;5015917;28;20506;-84
2021/11/04 11:01:31;;;;;;;32.40;22.08;;;9.30;99.90;;;;;;5025479;28;20037;-84
2021/11/04 11:04:07;;;;;;;34.42;24.08;;;9.30;99.90;;;;;;5036482;28;20389;-84
2021/11/04 11:06:38;;;;;;;31.75;22.42;;;9.20;99.90;;;;;;5018826;28;20071;-85
2021/11/04 11:09:06;;;;;;;32.50;22.50;;;9.30;99.90;;;;;;5018713;28;20112;-84
2021/11/04 11:11:33;;;;;;;34.50;22.20;;;9.30;99.90;;;;;;5017196;28;20036;-85
2021/11/04 11:13:59;;;;;;;30.45;21.38;;;9.40;99.90;;;;;;5036087;28;20041;-85
2021/11/04 11:16:25;;;;;;;35.80;22.52;;;9.40;99.90;;;;;;5036307;28;20025;-85
2021/11/04 11:18:57;;;;;;;29.27;20.23;;;9.40;99.90;;;;;;5026315;28;20065;-85
2021/11/04 11:21:33;;;;;;;26.85;19.08;;;9.40;99.90;;;;;;5022233;28;20030;-84
2021/11/04 11:24:00;;;;;;;24.77;18.15;;;9.40;99.90;;;;;;5016312;28;20486;-84
2021/11/04 11:26:27;;;;;;;24.15;18.58;;;9.60;99.90;;;;;;5050968;28;20550;-84
2021/11/04 11:28:55;;;;;;;28.05;18.90;;;9.70;99.90;;;;;;5040187;28;20377;-84
2021/11/04 11:31:22;;;;;;;26.58;20.48;;;9.80;99.90;;;;;;5018351;28;20025;-85
2021/11/04 11:34:06;;;;;;;27.48;20.33;;;9.80;99.90;;;;;;5018381;28;20021;-84
2021/11/04 11:36:32;;;;;;;26.73;18.58;;;9.90;99.90;;;;;;5018452;28;20083;-85
2021/11/04 11:39:09;;;;;;;23.17;18.33;;;9.90;99.90;;;;;;5040112;28;20033;-85
2021/11/04 11:41:55;;;;;;;28.73;20.90;;;9.90;99.90;;;;;;5036215;28;20029;-85
2021/11/04 11:44:42;;;;;;;28.98;19.67;;;9.90;99.90;;;;;;5035781;28;20017;-84
2021/11/04 11:47:15;;;;;;;24.60;18.65;;;9.90;99.90;;;;;;5035699;28;20355;-85
2021/11/04 11:49:42;;;;;;;25.92;18.05;;;9.80;99.90;;;;;;5035522;28;20025;-85
2021/11/04 11:52:46;;;;;;;23.27;17.85;;;9.80;99.90;;;;;;5035617;28;20404;-85
2021/11/04 11:55:15;;;;;;;25.30;18.58;;;9.80;99.90;;;;;;5035767;28;20469;-85
2021/11/04 11:58:01;;;;;;;25.35;19.27;;;9.80;99.90;;;;;;5036161;28;20021;-85
2021/11/04 12:00:49;;;;;;;24.17;18.13;;;9.80;99.90;;;;;;5037479;28;20044;-85
2021/11/04 12:03:37;;;;;;;27.27;19.55;;;9.80;99.90;;;;;;5032929;28;20092;-85
2021/11/04 12:06:25;;;;;;;25.88;18.48;;;9.80;99.90;;;;;;5014465;28;20030;-85
2021/11/04 12:08:52;;;;;;;22.75;17.98;;;9.80;99.90;;;;;;4999495;28;20533;-85
2021/11/04 12:11:37;;;;;;;24.52;18.10;;;9.80;99.90;;;;;;5017820;28;20398;-85
2021/11/04 12:14:15;;;;;;;25.85;18.80;;;9.90;99.90;;;;;;5017577;28;20025;-85
2021/11/04 12:16:59;;;;;;;29.77;20.63;;;9.90;99.90;;;;;;5035270;28;20017;-85
2021/11/04 12:19:39;;;;;;;32.78;21.00;;;10.00;99.90;;;;;;5027924;28;20040;-85
2021/11/04 12:22:33;;;;;;;30.20;21.00;;;10.00;99.90;;;;;;5016911;28;20120;-85
2021/11/04 12:25:03;;;;;;;29.38;20.92;;;10.00;99.90;;;;;;5016035;28;20021;-85
2021/11/04 12:27:33;;;;;;;28.48;21.50;;;10.20;99.90;;;;;;5023457;28;20037;-85
2021/11/04 12:30:12;;;;;;;28.58;21.42;;;10.20;99.90;;;;;;5016596;28;20025;-86
2021/11/04 12:32:37;;;;;;;29.95;21.15;;;10.30;99.90;;;;;;5013898;28;20032;-85
2021/11/04 12:35:07;;;;;;;33.97;23.52;;;10.40;99.90;;;;;;5001701;28;20021;-85
2021/11/04 12:37:34;;;;;;;29.83;21.20;;;10.40;99.90;;;;;;5013041;28;20034;-85